Time;durP1;ratioP1;P1;durP2;ratioP2;P2;SDS_P1;SDS_P2;PMS_P1;PMS_P2;Temp;Humidity;BMP_temperature;BMP_pressure;BME280_temperature;BME280_humidity;BME280_pressure;Samples;Min_cycle;Max_cycle;Signal;HPM_P1;HPM_P2
2023/03/27 00:01:29;;;;;;;4.18;0.45;;;;;;;5.56;85.04;99897.22;5224771;28;20436;-73
2023/03/27 00:04:00;;;;;;;3.50;0.80;;;;;;;5.50;83.76;99897.38;5229996;28;20018;-74
2023/03/27 00:06:33;;;;;;;4.68;0.60;;;;;;;5.45;83.58;99899.22;5227859;28;20023;-73
2023/03/27 00:09:06;;;;;;;4.90;0.90;;;;;;;5.43;82.75;99901.00;5229762;28;20044;-71
2023/03/27 00:11:37;;;;;;;3.20;0.63;;;;;;;5.36;82.27;99904.63;5222643;28;20498;-75
2023/03/27 00:14:07;;;;;;;2.33;0.50;;;;;;;5.37;83.03;99905.50;5227531;28;20021;-74
2023/03/27 00:16:38;;;;;;;3.05;0.60;;;;;;;5.38;82.69;99908.91;5226242;28;20522;-74
2023/03/27 00:21:39;;;;;;;1.73;0.40;;;;;;;5.23;81.45;99934.34;5218664;22;20049;-72
2023/03/27 00:24:10;;;;;;;2.20;0.50;;;;;;;5.35;80.56;99939.19;5189519;28;20067;-72
2023/03/27 00:26:41;;;;;;;5.38;1.05;;;;;;;5.29;80.45;99936.78;5193668;28;20496;-70
2023/03/27 00:29:12;;;;;;;3.33;0.70;;;;;;;5.11;79.64;99945.00;5209781;28;20051;-72
2023/03/27 00:31:42;;;;;;;5.65;0.60;;;;;;;5.21;80.16;99943.03;5194564;28;20581;-72
2023/03/27 00:34:12;;;;;;;2.88;0.47;;;;;;;5.11;79.19;99950.16;5210990;28;20372;-72
2023/03/27 00:36:47;;;;;;;3.97;0.60;;;;;;;5.10;78.11;99952.78;5208913;28;20056;-72
2023/03/27 00:39:18;;;;;;;2.97;0.60;;;;;;;5.06;77.67;99957.19;5209025;28;20078;-72
2023/03/27 00:41:49;;;;;;;3.28;0.63;;;;;;;5.01;77.85;99964.19;5209247;28;20038;-71
2023/03/27 00:44:36;;;;;;;1.92;0.55;;;;;;;4.86;76.54;99963.72;5211334;28;20064;-71
2023/03/27 00:47:09;;;;;;;3.13;0.40;;;;;;;4.86;76.82;99972.34;5207885;28;20063;-72
2023/03/27 00:49:39;;;;;;;1.50;0.50;;;;;;;4.91;76.89;99975.66;5190277;28;20035;-72
2023/03/27 00:52:12;;;;;;;3.92;0.50;;;;;;;4.91;76.63;99986.03;5206674;28;20104;-72
2023/03/27 00:54:44;;;;;;;1.90;0.50;;;;;;;4.86;76.04;99985.28;5212338;28;20063;-71
2023/03/27 00:57:18;;;;;;;2.22;0.43;;;;;;;4.89;75.15;99992.13;5208166;28;20231;-72
2023/03/27 00:59:51;;;;;;;5.32;0.80;;;;;;;4.86;75.30;99990.47;5211057;28;20385;-72
2023/03/27 01:02:22;;;;;;;4.82;0.68;;;;;;;4.91;74.83;99992.94;5188605;28;20033;-73
2023/03/27 01:04:53;;;;;;;2.45;0.40;;;;;;;4.90;75.16;99997.28;5205922;28;20029;-71
2023/03/27 01:07:24;;;;;;;2.97;0.40;;;;;;;4.75;74.26;100007.94;5207900;28;20029;-70
2023/03/27 01:09:55;;;;;;;3.70;0.65;;;;;;;4.71;74.82;100014.09;5210994;28;20044;-72
2023/03/27 01:12:31;;;;;;;2.28;0.43;;;;;;;4.59;75.18;100022.09;5182258;28;20044;-72
2023/03/27 01:15:19;;;;;;;2.72;0.47;;;;;;;4.53;75.33;100022.22;5207227;28;20087;-71
2023/03/27 01:18:09;;;;;;;3.08;0.60;;;;;;;4.54;75.28;100025.66;5203206;28;20032;-72
2023/03/27 01:20:51;;;;;;;6.28;0.93;;;;;;;4.54;75.66;100034.28;5205932;28;20033;-71
2023/03/27 01:24:00;;;;;;;5.72;0.50;;;;;;;4.38;76.88;100032.88;5206218;28;20422;-72
2023/03/27 01:27:09;;;;;;;4.20;0.60;;;;;;;4.38;77.88;100037.19;5211587;28;20039;-72
2023/03/27 01:30:35;;;;;;;3.67;0.80;;;;;;;4.22;78.97;100041.81;5205177;28;20112;-72
2023/03/27 01:33:26;;;;;;;0.82;0.30;;;;;;;4.16;79.06;100054.81;5134643;28;20050;-71
2023/03/27 01:36:38;;;;;;;1.90;0.47;;;;;;;4.10;79.43;100057.53;5204292;28;20017;-71
2023/03/27 01:39:21;;;;;;;1.60;0.40;;;;;;;3.96;80.37;100063.84;5207108;28;20479;-72
2023/03/27 01:42:19;;;;;;;1.45;0.40;;;;;;;3.83;80.29;100068.38;5205941;28;20108;-71
2023/03/27 01:45:16;;;;;;;3.55;0.40;;;;;;;3.88;80.00;100076.88;5207261;28;20025;-72
2023/03/27 01:47:59;;;;;;;3.58;0.50;;;;;;;3.84;80.15;100074.38;5199573;28;20021;-71
2023/03/27 01:50:47;;;;;;;2.78;0.50;;;;;;;3.70;80.19;100078.91;5211106;28;20021;-71
2023/03/27 01:53:31;;;;;;;3.80;0.52;;;;;;;3.67;80.83;100076.38;5198525;28;20025;-71
2023/03/27 01:56:24;;;;;;;5.63;0.68;;;;;;;3.51;81.06;100082.66;5208359;28;20048;-72
2023/03/27 01:59:02;;;;;;;2.00;0.60;;;;;;;3.63;81.30;100085.91;5209839;28;20379;-71
2023/03/27 02:01:37;;;;;;;4.05;0.60;;;;;;;3.59;81.14;100094.56;5202692;28;20030;-72
2023/03/27 02:04:22;;;;;;;0.55;0.22;;;;;;;3.52;81.08;100101.59;5207052;28;20072;-72
2023/03/27 02:06:59;;;;;;;2.17;0.47;;;;;;;3.50;81.09;100108.53;5205379;28;20033;-71
2023/03/27 02:09:43;;;;;;;7.13;0.77;;;;;;;3.47;81.70;100113.72;5204356;28;20029;-72
2023/03/27 02:12:18;;;;;;;5.93;0.98;;;;;;;3.24;82.11;100118.34;5204822;28;20438;-71
2023/03/27 02:14:53;;;;;;;2.80;0.43;;;;;;;3.27;82.30;100115.72;5206770;28;20075;-71
2023/03/27 02:17:27;;;;;;;3.08;0.57;;;;;;;3.20;82.28;100129.59;5205422;28;20097;-71
2023/03/27 02:20:19;;;;;;;5.55;0.60;;;;;;;3.24;81.98;100131.25;5190994;28;20116;-72
2023/03/27 02:22:49;;;;;;;4.82;0.70;;;;;;;3.18;82.34;100131.34;5206720;28;20021;-72
2023/03/27 02:25:33;;;;;;;1.92;0.57;;;;;;;3.15;81.69;100133.94;5204967;28;20244;-71
2023/03/27 02:28:22;;;;;;;2.08;0.50;;;;;;;3.22;82.43;100140.75;5209297;28;20044;-72
2023/03/27 02:31:05;;;;;;;7.22;0.65;;;;;;;3.16;82.35;100152.00;5207933;28;20052;-71
2023/03/27 02:34:10;;;;;;;8.60;0.70;;;;;;;3.14;82.90;100153.75;5201315;28;20500;-71
2023/03/27 02:37:02;;;;;;;6.45;0.80;;;;;;;3.02;82.84;100158.22;5198128;28;20199;-71
2023/03/27 02:39:52;;;;;;;6.25;0.90;;;;;;;2.96;83.59;100166.03;5204620;28;20036;-71
2023/03/27 02:42:39;;;;;;;5.80;0.88;;;;;;;2.92;83.52;100165.22;5197432;28;20021;-73
2023/03/27 02:45:12;;;;;;;8.25;0.93;;;;;;;2.86;83.89;100167.03;5204199;28;20029;-71
2023/03/27 02:47:51;;;;;;;3.55;0.57;;;;;;;2.89;83.43;100175.56;5209761;28;20636;-72
2023/03/27 02:50:30;;;;;;;3.78;0.55;;;;;;;2.89;83.91;100175.56;5202336;28;20036;-71
2023/03/27 02:53:03;;;;;;;5.57;0.57;;;;;;;2.91;82.92;100178.13;5206160;28;20017;-71
2023/03/27 02:55:40;;;;;;;7.97;1.10;;;;;;;2.97;83.46;100178.06;5210664;28;20107;-71
2023/03/27 02:58:15;;;;;;;2.45;0.60;;;;;;;3.00;82.66;100189.22;5200440;28;20235;-71
2023/03/27 03:00:49;;;;;;;1.60;0.65;;;;;;;2.98;83.18;100190.09;5215230;28;20375;-73
2023/03/27 03:03:30;;;;;;;6.20;0.85;;;;;;;2.95;83.19;100195.28;5212637;28;20021;-72
2023/03/27 03:06:06;;;;;;;5.30;0.70;;;;;;;2.90;82.88;100205.69;5207316;28;20029;-71
2023/03/27 03:08:37;;;;;;;3.67;0.70;;;;;;;2.95;82.86;100210.78;5207560;28;20030;-71
2023/03/27 03:11:10;;;;;;;4.00;0.68;;;;;;;2.93;82.65;100213.38;5205728;28;20103;-71
2023/03/27 03:13:41;;;;;;;4.72;0.60;;;;;;;2.95;82.78;100215.94;5205033;28;20478;-71
2023/03/27 03:16:11;;;;;;;2.05;0.60;;;;;;;2.95;82.96;100215.94;5206924;28;20173;-72
2023/03/27 03:18:41;;;;;;;7.20;0.90;;;;;;;2.97;83.47;100225.38;5208835;28;20478;-72
2023/03/27 03:21:11;;;;;;;7.95;1.02;;;;;;;2.95;83.70;100227.13;5206576;28;20043;-71
2023/03/27 03:23:42;;;;;;;2.63;0.60;;;;;;;2.90;83.19;100218.59;5199705;28;20029;-72
2023/03/27 03:26:14;;;;;;;8.48;1.10;;;;;;;2.89;83.39;100236.66;5207440;28;20393;-72
2023/03/27 03:28:46;;;;;;;5.30;0.73;;;;;;;2.83;83.17;100237.56;5207161;28;20043;-72
2023/03/27 03:31:17;;;;;;;2.70;0.60;;;;;;;2.82;82.87;100238.44;5206746;28;20039;-72
2023/03/27 03:33:47;;;;;;;4.72;0.57;;;;;;;2.86;83.87;100239.25;5205171;28;20483;-71
2023/03/27 03:36:17;;;;;;;6.28;0.80;;;;;;;2.88;84.36;100235.78;5202389;28;20033;-71
2023/03/27 03:38:48;;;;;;;4.53;0.68;;;;;;;2.90;83.69;100252.13;5204836;28;20025;-72
2023/03/27 03:41:18;;;;;;;1.08;0.65;;;;;;;2.80;84.06;100252.19;5190057;28;20033;-73
2023/03/27 03:43:50;;;;;;;2.97;0.40;;;;;;;2.98;84.60;100257.19;5204692;28;20032;-72
2023/03/27 03:46:20;;;;;;;3.42;0.70;;;;;;;3.03;84.02;100258.00;5206724;28;20034;-71
2023/03/27 03:48:50;;;;;;;3.15;0.60;;;;;;;3.11;83.57;100267.38;5204880;28;20387;-72
2023/03/27 03:51:21;;;;;;;4.93;0.50;;;;;;;3.17;83.43;100263.88;5206348;28;20082;-71
2023/03/27 03:53:51;;;;;;;3.20;1.05;;;;;;;3.21;83.54;100268.13;5204055;28;20022;-71
2023/03/27 03:56:22;;;;;;;2.25;0.70;;;;;;;3.18;82.77;100276.75;5208848;28;20491;-72
2023/03/27 03:58:52;;;;;;;5.95;0.80;;;;;;;3.04;82.18;100280.38;5211176;28;20479;-72
2023/03/27 04:01:23;;;;;;;3.95;0.80;;;;;;;3.07;82.43;100282.91;5212713;28;20033;-71
2023/03/27 04:03:53;;;;;;;4.53;0.70;;;;;;;3.00;83.26;100286.44;5208009;28;20465;-72
2023/03/27 04:06:24;;;;;;;1.40;0.30;;;;;;;3.01;83.78;100288.16;5206458;28;20045;-71
2023/03/27 04:08:54;;;;;;;0.85;0.40;;;;;;;3.02;83.55;100295.00;5211386;28;20509;-72
2023/03/27 04:11:25;;;;;;;5.93;0.50;;;;;;;2.96;83.82;100298.50;5208844;28;20099;-71
2023/03/27 04:13:55;;;;;;;7.22;0.80;;;;;;;2.92;84.33;100306.28;5207886;28;20094;-72
2023/03/27 04:16:25;;;;;;;2.60;0.47;;;;;;;2.86;84.44;100309.75;5208055;28;20818;-71
2023/03/27 04:18:55;;;;;;;8.85;0.82;;;;;;;2.68;84.33;100314.25;5190441;28;20063;-72
2023/03/27 04:21:26;;;;;;;7.80;0.75;;;;;;;2.64;85.71;100318.56;5205805;28;20033;-70
2023/03/27 04:24:01;;;;;;;2.75;0.73;;;;;;;2.65;84.79;100324.59;5207225;28;20398;-72
2023/03/27 04:26:31;;;;;;;6.28;0.98;;;;;;;2.71;84.66;100325.38;5207820;28;20029;-72
2023/03/27 04:29:02;;;;;;;4.25;0.95;;;;;;;2.70;84.80;100320.25;5191313;28;20525;-71
2023/03/27 04:31:33;;;;;;;4.50;0.63;;;;;;;2.61;84.95;100331.50;5206479;28;20148;-71
2023/03/27 04:34:03;;;;;;;6.10;0.90;;;;;;;2.65;85.08;100325.44;5202736;28;20488;-72
2023/03/27 04:36:33;;;;;;;7.53;0.70;;;;;;;2.43;85.07;100335.91;5208491;28;20079;-72
2023/03/27 04:39:04;;;;;;;5.80;0.90;;;;;;;2.48;85.54;100340.19;5189055;28;20029;-72
2023/03/27 04:41:34;;;;;;;3.85;0.63;;;;;;;2.51;85.72;100341.88;5208440;28;20060;-72
2023/03/27 04:44:04;;;;;;;2.63;0.80;;;;;;;2.59;85.36;100332.38;5195901;28;20104;-73
2023/03/27 04:46:34;;;;;;;8.35;0.80;;;;;;;2.53;85.68;100330.69;5209861;28;20045;-72
2023/03/27 04:49:05;;;;;;;5.15;1.10;;;;;;;2.63;85.74;100339.19;5208089;28;20120;-71
2023/03/27 04:51:36;;;;;;;3.83;0.73;;;;;;;2.67;84.90;100338.34;5191368;28;20029;-72
2023/03/27 04:54:06;;;;;;;6.63;0.80;;;;;;;2.85;85.39;100340.75;5208025;28;20034;-71
2023/03/27 04:56:37;;;;;;;6.30;0.70;;;;;;;2.83;85.86;100345.09;5211096;28;20035;-71
2023/03/27 04:59:07;;;;;;;5.05;0.70;;;;;;;2.85;85.09;100353.66;5209429;28;20037;-70
2023/03/27 05:01:38;;;;;;;3.50;1.15;;;;;;;2.91;84.70;100359.63;5206307;28;20438;-71
2023/03/27 05:04:09;;;;;;;4.07;0.85;;;;;;;2.85;85.51;100356.25;5209842;28;20474;-72
2023/03/27 05:06:39;;;;;;;7.88;0.90;;;;;;;2.88;85.11;100357.06;5212010;28;20049;-72
2023/03/27 05:09:09;;;;;;;2.90;1.02;;;;;;;2.93;85.78;100357.03;5210573;28;20044;-71
2023/03/27 05:11:40;;;;;;;10.73;1.42;;;;;;;2.90;86.84;100369.94;5204793;28;20083;-71
2023/03/27 05:14:10;;;;;;;3.58;0.93;;;;;;;2.85;86.78;100366.56;5204130;28;20533;-72
2023/03/27 05:16:41;;;;;;;9.18;1.17;;;;;;;2.99;86.07;100373.31;5206683;28;20123;-71
2023/03/27 05:19:11;;;;;;;4.47;0.80;;;;;;;2.91;87.13;100369.09;5205788;28;20511;-71
2023/03/27 05:21:42;;;;;;;5.05;1.08;;;;;;;2.92;87.32;100378.53;5207413;28;20521;-72
2023/03/27 05:24:13;;;;;;;5.75;0.93;;;;;;;3.01;86.95;100375.91;5191919;28;20483;-72
2023/03/27 05:26:43;;;;;;;8.05;0.70;;;;;;;3.04;87.30;100384.44;5189792;28;20359;-71
2023/03/27 05:29:15;;;;;;;2.65;0.88;;;;;;;3.01;86.64;100391.38;5201598;28;20061;-72
2023/03/27 05:31:45;;;;;;;7.22;1.08;;;;;;;3.18;87.02;100405.00;5203614;28;20534;-72
2023/03/27 05:34:18;;;;;;;3.85;0.60;;;;;;;3.18;86.85;100403.25;5206043;28;20068;-72
2023/03/27 05:36:48;;;;;;;10.75;1.33;;;;;;;3.14;86.28;100408.44;5197539;28;20031;-72
2023/03/27 05:39:18;;;;;;;7.68;1.05;;;;;;;3.18;87.32;100410.16;5200185;28;20402;-72
2023/03/27 05:41:49;;;;;;;7.60;1.00;;;;;;;3.03;87.22;100418.03;5198663;28;20029;-72
2023/03/27 05:44:20;;;;;;;5.03;1.20;;;;;;;3.15;88.28;100416.19;5186742;28;20052;-72
2023/03/27 05:46:50;;;;;;;5.50;1.00;;;;;;;3.13;87.93;100411.91;5208045;28;20036;-72
2023/03/27 05:49:20;;;;;;;6.90;1.00;;;;;;;3.15;88.24;100418.78;5205933;28;20029;-72
2023/03/27 05:51:51;;;;;;;6.60;0.95;;;;;;;3.19;87.98;100422.19;5207951;28;20052;-71
2023/03/27 05:54:21;;;;;;;6.72;1.30;;;;;;;3.25;88.72;100417.84;5206856;28;20506;-72
2023/03/27 05:56:52;;;;;;;6.10;0.95;;;;;;;3.36;89.02;100428.91;5209571;28;20033;-72
2023/03/27 05:59:22;;;;;;;11.93;1.00;;;;;;;3.15;88.17;100426.53;5210316;28;20299;-72
2023/03/27 06:01:52;;;;;;;3.63;0.90;;;;;;;3.35;88.19;100432.38;5209729;28;20055;-72
2023/03/27 06:04:24;;;;;;;4.95;1.00;;;;;;;3.53;88.42;100433.94;5210872;28;21025;-72
2023/03/27 06:06:54;;;;;;;7.00;0.77;;;;;;;3.63;87.82;100439.81;5210615;28;20086;-72
2023/03/27 06:09:25;;;;;;;7.40;1.00;;;;;;;3.77;88.31;100437.97;5208936;28;20080;-72
2023/03/27 06:11:56;;;;;;;5.40;1.10;;;;;;;3.75;87.93;100431.97;5207058;28;20029;-71
2023/03/27 06:14:26;;;;;;;7.82;1.15;;;;;;;3.79;87.97;100435.38;5209289;28;20022;-72
2023/03/27 06:16:56;;;;;;;7.53;1.45;;;;;;;3.88;88.08;100438.72;5189043;28;20251;-72
2023/03/27 06:19:27;;;;;;;7.80;1.20;;;;;;;3.85;88.31;100443.94;5206453;28;20134;-72
2023/03/27 06:21:57;;;;;;;3.30;0.70;;;;;;;3.91;88.42;100446.44;5207987;28;20039;-72
2023/03/27 06:24:27;;;;;;;8.50;1.35;;;;;;;3.98;88.59;100448.06;5201149;28;20021;-72
2023/03/27 06:26:58;;;;;;;6.82;1.00;;;;;;;3.85;88.54;100463.72;5205579;28;20037;-72
2023/03/27 06:29:28;;;;;;;12.30;1.02;;;;;;;3.91;88.24;100458.47;5208594;28;20107;-72
2023/03/27 06:32:00;;;;;;;9.93;0.88;;;;;;;4.03;88.25;100467.00;5184348;28;20047;-72
2023/03/27 06:34:30;;;;;;;5.10;0.93;;;;;;;3.90;87.83;100462.81;5208506;28;20029;-72
2023/03/27 06:37:03;;;;;;;8.52;1.05;;;;;;;4.09;88.44;100466.91;5200704;28;20029;-72
2023/03/27 06:39:34;;;;;;;6.55;1.10;;;;;;;4.09;87.22;100469.50;5200707;28;20025;-72
2023/03/27 06:42:04;;;;;;;6.03;0.88;;;;;;;4.06;87.11;100473.81;5200281;28;20040;-71
2023/03/27 06:44:35;;;;;;;11.05;1.20;;;;;;;4.12;87.72;100466.88;5201014;28;20414;-71
2023/03/27 06:47:05;;;;;;;7.72;1.35;;;;;;;4.16;87.96;100473.69;5201699;28;20742;-72
2023/03/27 06:49:35;;;;;;;8.15;1.15;;;;;;;4.06;87.56;100485.03;5197406;28;20029;-72
2023/03/27 06:52:06;;;;;;;6.28;1.00;;;;;;;4.11;87.61;100483.25;5202228;28;20495;-72
2023/03/27 06:54:37;;;;;;;7.10;1.10;;;;;;;3.89;88.09;100491.25;5199961;28;20032;-72
2023/03/27 06:57:07;;;;;;;4.50;0.80;;;;;;;4.34;87.99;100490.75;5199371;28;20037;-72
2023/03/27 06:59:37;;;;;;;6.30;1.15;;;;;;;4.48;88.09;100484.53;5201427;28;20395;-71
2023/03/27 07:02:10;;;;;;;6.85;1.20;;;;;;;4.58;87.30;100495.59;5200053;28;20116;-71
2023/03/27 07:04:40;;;;;;;3.85;0.95;;;;;;;4.53;87.27;100503.47;5201446;28;20021;-72
2023/03/27 07:07:11;;;;;;;4.05;1.00;;;;;;;4.46;87.75;100512.16;5200979;28;20027;-71
2023/03/27 07:09:41;;;;;;;10.43;1.35;;;;;;;4.45;88.74;100510.44;5200481;28;20108;-71
2023/03/27 07:12:11;;;;;;;5.43;1.42;;;;;;;4.51;88.24;100520.72;5199156;28;20021;-71
2023/03/27 07:14:42;;;;;;;3.25;1.10;;;;;;;4.79;87.07;100522.06;5203804;28;20033;-72
2023/03/27 07:17:12;;;;;;;5.25;1.48;;;;;;;6.62;82.27;100513.78;5184510;28;20072;-71
2023/03/27 07:19:43;;;;;;;9.23;1.10;;;;;;;7.70;74.41;100509.50;5204703;28;20021;-72
2023/03/27 07:22:13;;;;;;;5.75;1.10;;;;;;;8.60;70.73;100515.75;5204556;28;20021;-73
2023/03/27 07:24:43;;;;;;;3.10;0.90;;;;;;;9.28;69.33;100511.94;5203367;28;20479;-73
2023/03/27 07:27:15;;;;;;;6.57;0.90;;;;;;;9.69;66.85;100506.22;5207890;28;20100;-72
2023/03/27 07:29:45;;;;;;;8.65;1.00;;;;;;;10.11;64.86;100510.03;5203166;28;21227;-72
2023/03/27 07:32:16;;;;;;;6.43;1.02;;;;;;;10.63;63.57;100510.72;5204254;28;20025;-72
2023/03/27 07:34:46;;;;;;;6.03;1.52;;;;;;;11.49;62.07;100509.09;5209354;28;20018;-72
2023/03/27 07:37:17;;;;;;;7.47;1.08;;;;;;;12.29;59.70;100503.94;5214444;28;20299;-72
2023/03/27 07:39:47;;;;;;;2.75;0.80;;;;;;;13.11;59.04;100502.78;5211618;28;20025;-72
2023/03/27 07:42:18;;;;;;;5.22;1.05;;;;;;;12.23;57.73;100511.19;5209289;28;20108;-74
2023/03/27 07:44:48;;;;;;;6.95;1.08;;;;;;;11.18;62.32;100520.81;5210788;28;20026;-72
2023/03/27 07:47:18;;;;;;;5.40;0.80;;;;;;;9.56;65.40;100533.63;5205780;28;20383;-72
2023/03/27 07:49:49;;;;;;;9.55;1.30;;;;;;;8.46;68.46;100541.31;5206893;28;20037;-72
2023/03/27 07:52:20;;;;;;;4.18;0.80;;;;;;;7.25;72.09;100553.97;5212006;28;20128;-72
2023/03/27 07:54:50;;;;;;;9.30;0.90;;;;;;;6.66;74.37;100562.16;5188810;28;20035;-72
2023/03/27 07:57:21;;;;;;;6.65;1.08;;;;;;;5.94;77.67;100566.13;5211903;28;20021;-72
2023/03/27 07:59:51;;;;;;;5.18;0.90;;;;;;;6.30;77.38;100560.25;5212902;28;20126;-72
2023/03/27 08:02:23;;;;;;;10.82;2.72;;;;;;;6.22;76.90;100563.00;5204216;28;20037;-72
2023/03/27 08:04:54;;;;;;;10.80;2.97;;;;;;;6.03;77.38;100563.34;5178048;28;20028;-73
2023/03/27 08:07:25;;;;;;;4.10;0.85;;;;;;;5.99;77.16;100561.69;5208114;28;20483;-72
2023/03/27 08:09:56;;;;;;;8.18;1.55;;;;;;;5.77;77.97;100568.09;5210596;28;20061;-72
2023/03/27 08:12:26;;;;;;;5.03;1.00;;;;;;;5.44;79.34;100579.81;5208050;28;20510;-72
2023/03/27 08:14:57;;;;;;;7.90;1.73;;;;;;;5.40;80.83;100570.41;5210347;28;20032;-72
2023/03/27 08:17:29;;;;;;;7.70;1.45;;;;;;;5.33;79.89;100583.47;5209081;28;20044;-72
2023/03/27 08:20:07;;;;;;;4.78;1.20;;;;;;;5.23;80.68;100581.91;5209687;28;20025;-72
2023/03/27 08:22:38;;;;;;;4.38;1.00;;;;;;;5.38;81.04;100586.88;5207404;28;20513;-72
2023/03/27 08:25:12;;;;;;;4.53;1.30;;;;;;;7.35;76.23;100572.75;5207852;28;20213;-72
2023/03/27 08:27:43;;;;;;;7.63;1.52;;;;;;;7.58;73.41;100570.50;5190083;28;20596;-72
2023/03/27 08:30:14;;;;;;;3.40;0.95;;;;;;;8.67;69.37;100564.16;5211726;28;20120;-72
2023/03/27 08:32:45;;;;;;;3.42;1.30;;;;;;;10.04;65.42;100556.41;5207111;28;20040;-73
2023/03/27 08:35:15;;;;;;;5.72;1.10;;;;;;;11.27;62.33;100552.69;5205291;28;20034;-73
2023/03/27 08:37:45;;;;;;;4.25;1.00;;;;;;;11.59;61.15;100549.69;5211378;28;20033;-73
2023/03/27 08:40:22;;;;;;;4.88;1.60;;;;;;;12.09;59.40;100553.72;5209841;28;20429;-73
2023/03/27 08:42:56;;;;;;;3.85;1.33;;;;;;;12.15;57.63;100555.22;5205905;28;20100;-74
2023/03/27 08:45:35;;;;;;;6.53;1.60;;;;;;;11.09;61.40;100566.47;5213106;28;20025;-73
2023/03/27 08:48:15;;;;;;;7.15;2.10;;;;;;;10.82;64.34;100574.50;5181020;28;20421;-73
2023/03/27 08:50:50;;;;;;;5.72;1.25;;;;;;;10.81;63.85;100571.91;5209332;28;20075;-74
2023/03/27 08:54:02;;;;;;;6.40;1.60;;;;;;;11.31;61.55;100575.19;5215314;28;20014;-72
2023/03/27 08:56:33;;;;;;;2.55;1.10;;;;;;;12.16;58.88;100567.41;5215139;28;20645;-73
2023/03/27 08:59:12;;;;;;;8.77;1.30;;;;;;;12.38;59.91;100566.44;5209100;28;20033;-74
2023/03/27 09:01:48;;;;;;;2.90;0.80;;;;;;;10.84;61.12;100590.97;5207068;28;20029;-72
2023/03/27 09:04:30;;;;;;;6.15;1.70;;;;;;;9.48;64.11;100603.47;5216700;28;20394;-73
2023/03/27 09:07:10;;;;;;;8.95;2.70;;;;;;;8.98;66.09;100595.41;5213542;28;20085;-73
2023/03/27 09:10:04;;;;;;;4.18;1.77;;;;;;;8.73;67.09;100595.25;5207678;28;20036;-73
2023/03/27 09:12:37;;;;;;;4.57;1.40;;;;;;;10.68;62.23;100586.38;5204203;28;20372;-73
2023/03/27 09:15:27;;;;;;;9.65;3.20;;;;;;;10.38;61.59;100595.28;5202679;28;20090;-73
2023/03/27 09:18:09;;;;;;;4.72;1.88;;;;;;;11.75;59.68;100579.59;5204029;28;20562;-73
2023/03/27 09:20:46;;;;;;;10.02;2.35;;;;;;;11.90;57.26;100586.81;5202290;28;20029;-73
2023/03/27 09:23:29;;;;;;;8.40;2.78;;;;;;;11.71;58.43;100591.09;5202530;28;20025;-73
2023/03/27 09:26:07;;;;;;;7.90;2.72;;;;;;;10.47;60.43;100587.97;5188695;28;20035;-73
2023/03/27 09:29:06;;;;;;;8.00;2.17;;;;;;;9.82;62.26;100591.06;5203485;28;20513;-73
2023/03/27 09:31:45;;;;;;;4.68;1.60;;;;;;;9.17;63.93;100592.25;5203963;28;20508;-73
2023/03/27 09:34:25;;;;;;;10.30;1.92;;;;;;;8.43;66.68;100596.09;5207108;28;20018;-73
2023/03/27 09:36:58;;;;;;;4.63;1.52;;;;;;;7.93;67.33;100606.91;5205942;28;20044;-72
2023/03/27 09:39:32;;;;;;;8.45;2.28;;;;;;;7.44;68.69;100614.16;5208691;28;20063;-73
2023/03/27 09:42:22;;;;;;;3.33;1.08;;;;;;;8.18;67.42;100599.38;5193597;28;20028;-73
2023/03/27 09:44:57;;;;;;;9.38;2.38;;;;;;;8.39;67.33;100599.66;5202619;28;20047;-73
2023/03/27 09:47:36;;;;;;;8.50;2.80;;;;;;;8.33;66.45;100599.84;5202637;28;20061;-74
2023/03/27 09:50:43;;;;;;;7.88;2.50;;;;;;;8.12;66.35;100602.97;5201679;28;20120;-73
2023/03/27 09:53:13;;;;;;;;;;;;;;;7.57;66.85;100610.38;5199310;28;20025;-72
2023/03/27 09:55:54;;;;;;;3.90;1.13;;;;;;;8.45;65.99;100599.50;5206080;28;20389;-74
2023/03/27 09:58:27;;;;;;;4.78;1.15;;;;;;;7.98;66.16;100589.44;5206687;28;20064;-72
2023/03/27 10:01:07;;;;;;;6.75;2.40;;;;;;;8.42;67.55;100599.56;5187703;28;20048;-72
2023/03/27 10:03:40;;;;;;;3.47;1.15;;;;;;;9.10;65.47;100590.69;5205821;28;20048;-73
2023/03/27 10:06:15;;;;;;;4.05;0.80;;;;;;;9.26;63.73;100592.81;5207517;28;20025;-71
2023/03/27 10:08:49;;;;;;;4.70;1.17;;;;;;;9.62;63.96;100580.41;5187210;28;20478;-73
2023/03/27 10:11:24;;;;;;;2.38;0.90;;;;;;;9.02;61.40;100584.84;5184568;28;20068;-73
2023/03/27 10:13:57;;;;;;;1.95;0.60;;;;;;;8.52;61.70;100590.63;5208905;28;20441;-72
2023/03/27 10:16:28;;;;;;;4.07;0.75;;;;;;;7.95;62.26;100580.84;5205724;28;20078;-73
2023/03/27 10:18:59;;;;;;;2.03;1.00;;;;;;;7.64;62.90;100585.94;5200034;28;20041;-73
2023/03/27 10:21:38;;;;;;;4.25;1.10;;;;;;;8.01;62.63;100580.72;5203456;28;20298;-72
2023/03/27 10:24:26;;;;;;;4.13;1.60;;;;;;;8.18;63.79;100591.56;5185804;28;20018;-74
2023/03/27 10:27:03;;;;;;;4.30;1.27;;;;;;;8.23;63.90;100582.72;5206750;28;20033;-73
2023/03/27 10:29:35;;;;;;;6.70;0.90;;;;;;;7.35;66.85;100605.69;5199395;28;20088;-72
2023/03/27 10:32:06;;;;;;;4.10;0.60;;;;;;;6.81;73.81;100643.22;5202956;28;20108;-73
2023/03/27 10:34:54;;;;;;;6.05;0.80;;;;;;;5.85;82.10;100668.25;5206875;28;20025;-73
2023/03/27 10:37:33;;;;;;;4.93;0.73;;;;;;;5.30;89.47;100675.94;5209793;28;20652;-71
2023/03/27 10:40:06;;;;;;;8.00;1.30;;;;;;;5.48;93.86;100674.81;5208812;28;20764;-73
2023/03/27 10:42:36;;;;;;;3.40;1.00;;;;;;;5.48;96.23;100679.13;5202433;28;20491;-73
2023/03/27 10:45:15;;;;;;;2.60;0.88;;;;;;;5.49;97.26;100673.06;5207911;28;20308;-72
2023/03/27 10:47:51;;;;;;;2.78;0.88;;;;;;;5.83;98.38;100675.19;5207149;28;20030;-73
2023/03/27 10:50:21;;;;;;;1.05;0.50;;;;;;;5.62;97.06;100674.63;5203340;28;20026;-72
2023/03/27 10:53:11;;;;;;;2.05;0.60;;;;;;;5.62;97.41;100674.63;5208064;28;20029;-72
2023/03/27 10:56:04;;;;;;;2.35;0.70;;;;;;;5.51;95.41;100679.09;5184219;28;20119;-74
2023/03/27 10:59:00;;;;;;;1.15;0.50;;;;;;;5.62;94.42;100679.81;5202425;28;20021;-73
2023/03/27 11:01:33;;;;;;;2.65;0.90;;;;;;;5.79;96.23;100677.84;5201317;28;20503;-72
2023/03/27 11:04:09;;;;;;;4.97;1.25;;;;;;;5.71;94.74;100675.34;5189086;28;20152;-72
2023/03/27 11:06:42;;;;;;;5.03;1.20;;;;;;;5.48;97.49;100682.59;5207565;28;20090;-72
2023/03/27 11:09:22;;;;;;;4.80;1.13;;;;;;;5.95;95.94;100675.00;5209850;28;20040;-72
2023/03/27 11:12:00;;;;;;;3.90;1.33;;;;;;;6.28;93.39;100674.47;5214278;28;20028;-73
2023/03/27 11:15:14;;;;;;;22.65;6.63;;;;;;;6.52;92.43;100673.19;5212892;28;20053;-72
2023/03/27 11:17:56;;;;;;;2.65;1.08;;;;;;;6.92;91.16;100684.56;5120786;28;20035;-73
2023/03/27 11:20:43;;;;;;;2.60;0.98;;;;;;;7.34;90.15;100674.19;5118776;28;20023;-71
2023/03/27 11:23:37;;;;;;;3.03;1.02;;;;;;;7.66;83.96;100669.97;5187198;28;20110;-72
2023/03/27 11:26:11;;;;;;;4.47;1.10;;;;;;;7.75;82.19;100676.72;5188337;28;20033;-72
2023/03/27 11:28:53;;;;;;;3.83;1.15;;;;;;;7.81;80.41;100666.16;5216498;28;20124;-73
2023/03/27 11:31:26;;;;;;;5.55;2.10;;;;;;;8.04;79.71;100664.75;5193396;28;20033;-71
2023/03/27 11:34:05;;;;;;;7.13;1.20;;;;;;;7.73;80.43;100668.94;5208839;28;20077;-73
2023/03/27 11:36:48;;;;;;;10.95;2.85;;;;;;;7.66;81.85;100677.78;5207988;28;20048;-73
2023/03/27 11:39:35;;;;;;;2.67;0.80;;;;;;;7.16;81.88;100695.34;5209981;28;20037;-73
2023/03/27 11:42:28;;;;;;;4.82;0.82;;;;;;;6.13;83.36;100717.97;5192849;28;20029;-73
2023/03/27 11:45:03;;;;;;;2.45;0.50;;;;;;;5.80;86.95;100731.44;5194745;28;20272;-72
2023/03/27 11:48:01;;;;;;;1.50;0.60;;;;;;;5.09;89.04;100752.16;5203619;28;20087;-72
2023/03/27 11:50:31;;;;;;;3.60;0.57;;;;;;;4.48;94.06;100758.78;5205822;28;20033;-72
2023/03/27 11:53:26;;;;;;;3.60;0.40;;;;;;;3.87;99.04;100770.44;5212161;28;20029;-72
2023/03/27 11:56:15;;;;;;;1.60;0.30;;;;;;;3.36;100.00;100766.38;5210986;28;20513;-72
2023/03/27 11:59:00;;;;;;;3.42;1.17;;;;;;;3.34;100.00;100765.53;5211333;28;20474;-72
2023/03/27 12:01:49;;;;;;;3.28;1.60;;;;;;;3.46;100.00;100755.13;5215665;28;20474;-72
2023/03/27 12:04:49;;;;;;;6.38;1.55;;;;;;;3.62;100.00;100750.75;5209534;28;20033;-72
2023/03/27 12:07:47;;;;;;;3.70;1.40;;;;;;;3.96;100.00;100743.66;5210615;28;20086;-72
2023/03/27 12:10:31;;;;;;;2.13;0.90;;;;;;;4.30;100.00;100740.81;5193471;28;20030;-72
2023/03/27 12:13:36;;;;;;;3.33;1.52;;;;;;;4.34;100.00;100734.78;5214104;28;20025;-72
2023/03/27 12:16:42;;;;;;;1.98;0.90;;;;;;;4.62;100.00;100740.56;5208189;28;20037;-72
2023/03/27 12:19:23;;;;;;;3.10;0.83;;;;;;;4.60;100.00;100739.72;5209213;28;20030;-72